createdAt,value
2023-05-09T00:00:20.018Z,7.57
2023-05-09T00:03:05.489Z,9.02
2023-05-09T00:05:51.285Z,5.30
2023-05-09T00:08:36.615Z,7.98
2023-05-09T00:11:22.418Z,7.73
2023-05-09T00:14:08.236Z,8.81
2023-05-09T00:16:53.770Z,7.97
2023-05-09T00:19:38.877Z,7.54
2023-05-09T00:22:24.325Z,8.53
2023-05-09T00:25:11.276Z,7.21
2023-05-09T00:27:56.716Z,8.38
2023-05-09T00:30:42.067Z,8.43
2023-05-09T00:33:27.258Z,8.37
2023-05-09T00:36:12.555Z,7.75
2023-05-09T00:38:57.762Z,8.51
2023-05-09T00:41:43.054Z,7.81
2023-05-09T00:44:28.373Z,7.73
2023-05-09T00:47:13.987Z,7.20
2023-05-09T00:49:59.452Z,7.64
2023-05-09T00:52:45.391Z,6.71
2023-05-09T00:55:30.752Z,6.78
2023-05-09T00:58:16.798Z,8.17
2023-05-09T01:01:02.388Z,7.94
2023-05-09T01:03:48.148Z,7.37
2023-05-09T01:06:41.438Z,4.84
2023-05-09T01:10:05.257Z,8.00
2023-05-09T01:13:09.323Z,7.93
2023-05-09T01:16:44.129Z,7.87
2023-05-09T01:19:50.744Z,7.85
2023-05-09T01:22:39.707Z,7.83
2023-05-09T01:26:04.396Z,7.74
2023-05-09T01:29:00.860Z,7.73
2023-05-09T01:31:48.227Z,6.03
2023-05-09T01:34:35.148Z,6.32
2023-05-09T01:37:24.667Z,6.60
2023-05-09T01:40:18.178Z,6.61
2023-05-09T01:43:08.930Z,7.42
2023-05-09T01:45:55.333Z,7.34
2023-05-09T01:48:42.525Z,6.50
2023-05-09T01:51:29.760Z,6.87
2023-05-09T01:54:17.145Z,5.92
2023-05-09T01:57:03.884Z,6.66
2023-05-09T01:59:50.657Z,6.99
2023-05-09T02:02:37.967Z,6.54
2023-05-09T02:05:27.918Z,7.27
2023-05-09T02:08:15.033Z,7.11
2023-05-09T02:11:00.469Z,5.80
2023-05-09T02:13:46.308Z,6.50
2023-05-09T02:16:32.740Z,6.42
2023-05-09T02:19:18.136Z,7.21
2023-05-09T02:22:03.780Z,6.15
2023-05-09T02:24:50.004Z,6.51
2023-05-09T02:27:36.932Z,4.68
2023-05-09T02:30:24.886Z,4.81
2023-05-09T02:33:12.497Z,6.81
2023-05-09T02:35:58.206Z,6.86
2023-05-09T02:38:44.973Z,5.38
2023-05-09T02:41:30.405Z,6.69
2023-05-09T02:44:16.121Z,6.11
2023-05-09T02:47:03.090Z,5.88
2023-05-09T02:49:48.388Z,4.39
2023-05-09T02:52:34.760Z,5.41
2023-05-09T02:55:20.209Z,6.32
2023-05-09T02:58:13.556Z,4.95
2023-05-09T03:01:00.608Z,6.72
2023-05-09T03:03:46.101Z,5.96
2023-05-09T03:06:31.824Z,5.25
2023-05-09T03:09:17.607Z,5.51
2023-05-09T03:12:02.989Z,6.47
2023-05-09T03:14:48.582Z,6.16
2023-05-09T03:17:34.520Z,6.15
2023-05-09T03:20:20.282Z,5.96
2023-05-09T03:23:05.745Z,5.39
2023-05-09T03:25:51.265Z,5.57
2023-05-09T03:28:38.528Z,4.59
2023-05-09T03:31:25.642Z,4.21
2023-05-09T03:34:10.843Z,3.70
2023-05-09T03:36:57.216Z,5.61
2023-05-09T03:39:43.270Z,4.76
2023-05-09T03:42:28.595Z,5.27
2023-05-09T03:45:17.889Z,4.86
2023-05-09T03:48:05.426Z,5.58
2023-05-09T03:50:50.611Z,5.58
2023-05-09T03:53:36.318Z,4.41
2023-05-09T03:56:21.933Z,4.10
2023-05-09T03:59:09.733Z,5.54
2023-05-09T04:01:55.424Z,3.59
2023-05-09T04:04:43.903Z,4.62
2023-05-09T04:07:30.022Z,2.97
2023-05-09T04:10:15.485Z,6.26
2023-05-09T04:13:01.260Z,5.35
2023-05-09T04:15:47.357Z,4.52
2023-05-09T04:18:33.021Z,6.14
2023-05-09T04:21:19.076Z,4.93
2023-05-09T04:24:07.764Z,6.40
2023-05-09T04:27:04.945Z,6.13
2023-05-09T04:29:50.465Z,6.57
2023-05-09T04:32:36.068Z,7.43
2023-05-09T04:35:22.500Z,6.83
2023-05-09T04:38:10.517Z,7.53
2023-05-09T04:40:56.329Z,6.95
2023-05-09T04:43:44.408Z,5.99
2023-05-09T04:46:29.895Z,7.57
2023-05-09T04:49:15.925Z,7.53
2023-05-09T04:52:01.048Z,7.88
2023-05-09T04:54:46.674Z,8.83
2023-05-09T04:57:34.544Z,8.14
2023-05-09T05:00:22.049Z,8.68
2023-05-09T05:03:07.843Z,8.86
2023-05-09T05:05:53.696Z,6.18
2023-05-09T05:08:39.517Z,9.09
2023-05-09T05:11:24.903Z,8.47
2023-05-09T05:14:10.790Z,8.52
2023-05-09T05:16:56.258Z,6.82
2023-05-09T05:19:42.389Z,8.96
2023-05-09T05:22:27.787Z,8.87
2023-05-09T05:25:13.533Z,8.89
2023-05-09T05:28:00.652Z,8.82
2023-05-09T05:30:46.062Z,9.39
2023-05-09T05:33:31.626Z,9.34
2023-05-09T05:36:17.624Z,8.83
2023-05-09T05:39:03.345Z,9.87
2023-05-09T05:41:48.952Z,9.98
2023-05-09T05:44:35.107Z,9.79
2023-05-09T05:47:20.689Z,9.57
2023-05-09T05:50:07.103Z,10.24
2023-05-09T05:52:54.324Z,10.31
2023-05-09T05:55:41.800Z,9.97
2023-05-09T05:58:27.476Z,10.89
2023-05-09T06:01:15.445Z,9.99
2023-05-09T06:04:00.753Z,10.62
2023-05-09T06:06:49.146Z,11.07
2023-05-09T06:09:35.169Z,11.44
2023-05-09T06:12:20.554Z,11.42
2023-05-09T06:15:06.898Z,12.06
2023-05-09T06:17:56.235Z,12.36
2023-05-09T06:20:41.673Z,10.73
2023-05-09T06:23:27.652Z,12.10
2023-05-09T06:26:13.427Z,11.61
2023-05-09T06:28:59.172Z,12.45
2023-05-09T06:31:44.522Z,11.69
2023-05-09T06:34:30.340Z,12.60
2023-05-09T06:37:15.646Z,12.26
2023-05-09T06:40:01.366Z,13.10
2023-05-09T06:42:47.140Z,12.94
2023-05-09T06:45:33.424Z,12.12
2023-05-09T06:48:19.307Z,13.37
2023-05-09T06:51:04.606Z,13.74
2023-05-09T06:53:50.099Z,13.66
2023-05-09T06:56:36.576Z,13.30
2023-05-09T06:59:22.028Z,14.16
2023-05-09T07:02:07.516Z,14.30
2023-05-09T07:04:53.009Z,14.80
2023-05-09T07:07:38.360Z,13.84
2023-05-09T07:10:23.890Z,14.40
2023-05-09T07:13:09.523Z,13.17
2023-05-09T07:15:54.992Z,14.73
2023-05-09T07:18:40.179Z,14.83
2023-05-09T07:21:25.316Z,15.40
2023-05-09T07:24:10.604Z,14.13
2023-05-09T07:26:55.684Z,14.63
2023-05-09T07:29:41.420Z,14.65
2023-05-09T07:32:26.931Z,15.51
2023-05-09T07:35:12.663Z,15.17
2023-05-09T07:37:57.943Z,14.43
2023-05-09T07:40:43.136Z,15.70
2023-05-09T07:43:28.622Z,15.96
2023-05-09T07:46:13.860Z,16.30
2023-05-09T07:48:59.365Z,14.83
2023-05-09T07:51:45.097Z,15.19
2023-05-09T07:54:30.072Z,16.70
2023-05-09T07:57:15.652Z,16.24
2023-05-09T08:00:00.812Z,16.02
2023-05-09T08:02:46.177Z,16.80
2023-05-09T08:05:31.876Z,16.96
2023-05-09T08:08:17.457Z,15.90
2023-05-09T08:11:02.948Z,16.88
2023-05-09T08:13:48.479Z,17.42
2023-05-09T08:16:33.596Z,16.93
2023-05-09T08:19:19.117Z,17.46
2023-05-09T08:22:04.599Z,16.54
2023-05-09T08:24:50.345Z,17.09
2023-05-09T08:27:35.515Z,17.83
2023-05-09T08:30:21.122Z,17.98
2023-05-09T08:33:06.561Z,17.30
2023-05-09T08:35:53.441Z,17.92
2023-05-09T08:38:38.642Z,17.05
2023-05-09T08:41:27.329Z,18.05
2023-05-09T08:44:13.236Z,16.97
2023-05-09T08:47:00.967Z,18.33
2023-05-09T08:49:46.212Z,17.36
2023-05-09T08:52:32.969Z,18.15
2023-05-09T08:55:18.981Z,17.50
2023-05-09T08:58:04.766Z,18.28
2023-05-09T09:00:50.553Z,18.25
2023-05-09T09:03:37.576Z,18.01
2023-05-09T09:06:23.424Z,18.00
2023-05-09T09:09:09.184Z,18.87
2023-05-09T09:11:54.511Z,18.14
2023-05-09T09:14:46.397Z,18.08
2023-05-09T09:17:33.312Z,19.15
2023-05-09T09:20:23.394Z,20.04
2023-05-09T09:23:09.800Z,20.03
2023-05-09T09:26:04.408Z,19.96
2023-05-09T09:28:49.520Z,20.13
2023-05-09T09:31:34.878Z,19.86
2023-05-09T09:34:22.557Z,19.19
2023-05-09T09:37:07.775Z,20.32
2023-05-09T09:39:56.836Z,20.17
2023-05-09T09:42:47.560Z,20.57
2023-05-09T09:45:32.718Z,20.37
2023-05-09T09:48:18.106Z,19.80
2023-05-09T09:51:12.177Z,20.42
2023-05-09T09:53:57.831Z,18.38
2023-05-09T09:56:45.182Z,20.30
2023-05-09T09:59:30.752Z,19.67
2023-05-09T10:02:16.185Z,19.76
2023-05-09T10:05:07.867Z,19.09
2023-05-09T10:07:59.624Z,20.19
2023-05-09T10:10:45.084Z,20.03
2023-05-09T10:13:30.835Z,19.38
2023-05-09T10:16:16.250Z,20.77
2023-05-09T10:19:02.152Z,21.07
2023-05-09T10:21:50.653Z,20.93
2023-05-09T10:24:51.237Z,20.93
2023-05-09T10:27:38.288Z,19.87
2023-05-09T10:30:31.505Z,19.99
2023-05-09T10:33:24.348Z,20.40
2023-05-09T10:36:10.553Z,21.23
2023-05-09T10:38:56.120Z,20.00
2023-05-09T10:41:41.864Z,20.21
2023-05-09T10:44:27.770Z,20.96
2023-05-09T10:47:13.984Z,19.95
2023-05-09T10:49:59.750Z,19.26
2023-05-09T10:53:04.505Z,20.42
2023-05-09T10:56:00.973Z,20.89
2023-05-09T10:58:47.935Z,20.82
2023-05-09T11:01:36.152Z,19.70
2023-05-09T11:04:23.934Z,20.73
2023-05-09T11:07:27.046Z,20.10
2023-05-09T11:10:17.847Z,20.14
2023-05-09T11:13:03.152Z,19.76
2023-05-09T11:16:04.665Z,20.19
2023-05-09T11:18:52.475Z,20.24
2023-05-09T11:21:39.890Z,17.08
2023-05-09T11:24:25.375Z,20.32
2023-05-09T11:27:20.566Z,21.36
2023-05-09T11:30:07.572Z,21.86
2023-05-09T11:32:54.869Z,21.01
2023-05-09T11:35:44.135Z,19.81
2023-05-09T11:38:41.374Z,20.47
2023-05-09T11:41:27.592Z,20.12
2023-05-09T11:44:21.005Z,20.09
2023-05-09T11:47:06.519Z,20.28
2023-05-09T11:49:53.237Z,20.94
2023-05-09T11:52:40.131Z,21.07
2023-05-09T11:55:25.844Z,20.70
2023-05-09T11:58:12.057Z,20.73
2023-05-09T12:00:57.660Z,20.43
2023-05-09T12:03:46.554Z,20.50
2023-05-09T12:06:32.350Z,20.86
2023-05-09T12:09:19.634Z,19.86
2023-05-09T12:12:12.642Z,21.23
2023-05-09T12:15:02.453Z,18.88
2023-05-09T12:17:50.358Z,20.16
2023-05-09T12:20:41.419Z,21.18
2023-05-09T12:23:26.680Z,21.37
2023-05-09T12:26:12.478Z,21.42
2023-05-09T12:28:58.138Z,21.80
2023-05-09T12:31:44.158Z,21.19
2023-05-09T12:34:29.391Z,21.41
2023-05-09T12:37:16.543Z,21.71
2023-05-09T12:40:08.546Z,22.48
2023-05-09T12:42:53.965Z,21.00
2023-05-09T12:45:39.069Z,21.16
2023-05-09T12:48:25.665Z,19.77
2023-05-09T12:51:11.121Z,20.84
2023-05-09T12:54:02.883Z,21.72
2023-05-09T12:56:48.173Z,21.55
2023-05-09T12:59:33.724Z,21.35
2023-05-09T13:02:19.129Z,20.73
2023-05-09T13:05:08.605Z,20.30
2023-05-09T13:07:56.954Z,20.09
2023-05-09T13:10:42.510Z,21.02
2023-05-09T13:13:28.669Z,20.49
2023-05-09T13:16:15.893Z,21.58
2023-05-09T13:19:03.197Z,21.38
2023-05-09T13:21:48.780Z,19.95
2023-05-09T13:24:33.993Z,21.10
2023-05-09T13:27:19.288Z,19.76
2023-05-09T13:30:06.008Z,20.92
2023-05-09T13:32:51.267Z,20.24
2023-05-09T13:35:36.506Z,20.24
2023-05-09T13:38:22.444Z,20.34
2023-05-09T13:41:07.839Z,20.92
2023-05-09T13:43:53.324Z,20.10
2023-05-09T13:46:38.854Z,20.16
2023-05-09T13:49:24.703Z,20.73
2023-05-09T13:52:09.967Z,20.09
2023-05-09T13:54:55.273Z,20.71
2023-05-09T13:57:40.348Z,21.20
2023-05-09T14:00:25.714Z,21.01
2023-05-09T14:03:11.037Z,20.60
2023-05-09T14:05:56.408Z,18.41
2023-05-09T14:08:41.798Z,20.82
2023-05-09T14:11:27.060Z,20.60
2023-05-09T14:14:11.934Z,20.36
2023-05-09T14:16:57.192Z,20.62
2023-05-09T14:19:42.580Z,20.39
2023-05-09T14:22:28.308Z,21.30
2023-05-09T14:25:13.987Z,20.92
2023-05-09T14:27:59.277Z,20.90
2023-05-09T14:30:44.480Z,20.52
2023-05-09T14:33:29.716Z,20.71
2023-05-09T14:36:15.181Z,20.75
2023-05-09T14:39:00.670Z,19.99
2023-05-09T14:41:46.142Z,20.52
2023-05-09T14:44:31.987Z,20.83
2023-05-09T14:47:17.186Z,19.51
2023-05-09T14:50:02.445Z,19.41
2023-05-09T14:52:49.108Z,19.78
2023-05-09T14:55:34.590Z,19.39
2023-05-09T14:58:21.556Z,18.39
2023-05-09T15:01:07.244Z,19.25
2023-05-09T15:03:52.672Z,19.16
2023-05-09T15:06:38.208Z,18.70
2023-05-09T15:09:23.563Z,18.28
2023-05-09T15:12:08.849Z,18.38
2023-05-09T15:14:53.953Z,17.89
2023-05-09T15:17:39.300Z,18.66
2023-05-09T15:20:24.825Z,19.22
2023-05-09T15:23:12.091Z,18.16
2023-05-09T15:25:57.450Z,18.30
2023-05-09T15:28:43.176Z,18.23
2023-05-09T15:31:32.942Z,19.23
2023-05-09T15:34:18.557Z,18.47
2023-05-09T15:37:04.002Z,18.48
2023-05-09T15:39:49.931Z,17.93
2023-05-09T15:42:36.069Z,18.47
2023-05-09T15:45:21.231Z,18.50
2023-05-09T15:48:06.539Z,18.76
2023-05-09T15:50:53.202Z,19.15
2023-05-09T15:53:38.642Z,18.33
2023-05-09T15:56:24.302Z,18.28
2023-05-09T15:59:09.729Z,17.98
2023-05-09T16:01:55.822Z,17.81
2023-05-09T16:04:41.427Z,18.77
2023-05-09T16:07:26.863Z,18.84
2023-05-09T16:10:13.587Z,18.17
2023-05-09T16:12:59.069Z,18.39
2023-05-09T16:15:44.645Z,18.40
2023-05-09T16:18:30.202Z,17.98
2023-05-09T16:21:16.993Z,18.72
2023-05-09T16:24:02.712Z,18.62
2023-05-09T16:26:48.353Z,15.95
2023-05-09T16:29:34.032Z,18.33
2023-05-09T16:32:19.300Z,18.69
2023-05-09T16:35:05.840Z,18.47
2023-05-09T16:37:51.060Z,16.95
2023-05-09T16:40:36.889Z,19.11
2023-05-09T16:43:22.424Z,19.11
2023-05-09T16:46:08.700Z,18.81
2023-05-09T16:48:55.228Z,18.79
2023-05-09T16:51:41.860Z,18.30
2023-05-09T16:54:27.162Z,13.00
2023-05-09T16:57:13.326Z,14.68
2023-05-09T17:00:00.503Z,18.32
2023-05-09T17:02:45.907Z,17.68
2023-05-09T17:05:31.925Z,14.04
2023-05-09T17:08:17.550Z,17.93
2023-05-09T17:11:02.903Z,17.32
2023-05-09T17:13:48.363Z,16.70
2023-05-09T17:16:35.298Z,17.21
2023-05-09T17:19:23.289Z,17.32
2023-05-09T17:22:09.233Z,17.45
2023-05-09T17:24:54.908Z,13.85
2023-05-09T17:27:40.295Z,17.04
2023-05-09T17:30:27.352Z,17.08
2023-05-09T17:33:15.717Z,16.66
2023-05-09T17:36:01.114Z,17.61
2023-05-09T17:38:46.430Z,17.83
2023-05-09T17:41:31.984Z,16.49
2023-05-09T17:44:17.936Z,17.55
2023-05-09T17:47:03.640Z,18.32
2023-05-09T17:49:48.800Z,18.29
2023-05-09T17:52:34.570Z,18.47
2023-05-09T17:55:20.388Z,16.57
2023-05-09T17:58:06.054Z,17.49
2023-05-09T18:00:54.216Z,17.06
2023-05-09T18:03:39.617Z,17.42
2023-05-09T18:06:25.220Z,17.66
2023-05-09T18:09:11.151Z,16.84
2023-05-09T18:11:56.592Z,14.80
2023-05-09T18:14:42.289Z,17.21
2023-05-09T18:17:27.496Z,16.73
2023-05-09T18:20:13.230Z,16.41
2023-05-09T18:22:58.725Z,13.66
2023-05-09T18:25:43.924Z,16.34
2023-05-09T18:28:29.684Z,14.43
2023-05-09T18:31:15.577Z,15.65
2023-05-09T18:34:01.468Z,15.92
2023-05-09T18:36:47.603Z,14.50
2023-05-09T18:39:32.954Z,14.60
2023-05-09T18:42:18.929Z,14.31
2023-05-09T18:45:05.311Z,13.93
2023-05-09T18:47:50.842Z,14.41
2023-05-09T18:50:36.335Z,12.53
2023-05-09T18:53:22.143Z,15.89
2023-05-09T18:56:07.525Z,16.15
2023-05-09T18:58:53.228Z,15.31
2023-05-09T19:01:38.241Z,15.49
2023-05-09T19:04:24.613Z,16.01
2023-05-09T19:07:10.458Z,15.56
2023-05-09T19:09:56.221Z,13.11
2023-05-09T19:12:42.111Z,14.74
2023-05-09T19:15:27.865Z,15.52
2023-05-09T19:18:13.610Z,14.67
2023-05-09T19:21:00.051Z,15.14
2023-05-09T19:23:45.601Z,14.13
2023-05-09T19:29:19.153Z,14.64
2023-05-09T19:32:04.883Z,12.78
2023-05-09T19:34:50.540Z,11.34
2023-05-09T19:37:36.891Z,13.73
2023-05-09T19:40:23.087Z,13.36
2023-05-09T19:43:08.785Z,13.49
2023-05-09T19:45:54.763Z,13.78
2023-05-09T19:48:40.620Z,14.03
2023-05-09T19:51:25.821Z,13.89
2023-05-09T19:54:11.570Z,13.62
2023-05-09T19:56:56.940Z,13.42
2023-05-09T19:59:42.247Z,13.96
2023-05-09T20:02:28.109Z,13.25
2023-05-09T20:05:13.358Z,14.11
2023-05-09T20:07:58.899Z,13.35
2023-05-09T20:10:44.027Z,13.95
2023-05-09T20:13:29.482Z,13.83
2023-05-09T20:16:15.174Z,12.80
2023-05-09T20:19:00.784Z,13.69
2023-05-09T20:21:46.141Z,11.84
2023-05-09T20:24:31.726Z,13.48
2023-05-09T20:27:17.287Z,12.81
2023-05-09T20:30:05.821Z,12.29
2023-05-09T20:32:51.234Z,13.01
2023-05-09T20:35:36.388Z,12.49
2023-05-09T20:38:21.746Z,12.84
2023-05-09T20:41:07.409Z,12.87
2023-05-09T20:43:52.989Z,11.17
2023-05-09T20:46:38.480Z,12.90
2023-05-09T20:49:23.984Z,12.70
2023-05-09T20:52:09.955Z,11.92
2023-05-09T20:54:55.217Z,12.31
2023-05-09T20:57:40.542Z,11.61
2023-05-09T21:00:25.869Z,12.47
2023-05-09T21:03:11.467Z,12.52
2023-05-09T21:05:58.194Z,11.53
2023-05-09T21:08:43.500Z,11.04
2023-05-09T21:11:28.889Z,11.04
2023-05-09T21:14:14.164Z,11.89
2023-05-09T21:16:59.689Z,12.39
2023-05-09T21:19:45.193Z,11.76
2023-05-09T21:22:30.483Z,11.34
2023-05-09T21:25:16.009Z,11.29
2023-05-09T21:28:01.711Z,12.07
2023-05-09T21:30:53.729Z,12.06
2023-05-09T21:33:39.328Z,11.98
2023-05-09T21:36:25.315Z,12.18
2023-05-09T21:39:10.896Z,11.98
2023-05-09T21:41:56.826Z,11.83
2023-05-09T21:44:42.121Z,11.91
2023-05-09T21:47:27.526Z,11.68
2023-05-09T21:50:13.035Z,11.70
2023-05-09T21:52:59.976Z,10.74
2023-05-09T21:55:45.242Z,10.49
2023-05-09T21:58:30.320Z,11.25
2023-05-09T22:01:17.968Z,11.03
2023-05-09T22:04:04.913Z,10.11
2023-05-09T22:06:50.314Z,11.33
2023-05-09T22:09:35.882Z,9.71
2023-05-09T22:12:21.494Z,11.21
2023-05-09T22:15:07.535Z,10.70
2023-05-09T22:17:52.963Z,11.00
2023-05-09T22:20:38.781Z,11.04
2023-05-09T22:23:24.443Z,10.46
2023-05-09T22:26:09.710Z,11.53
2023-05-09T22:28:55.287Z,11.42
2023-05-09T22:31:41.174Z,11.51
2023-05-09T22:34:26.506Z,10.07
2023-05-09T22:37:11.954Z,11.26
2023-05-09T22:39:57.096Z,10.87
2023-05-09T22:42:42.722Z,10.17
2023-05-09T22:45:53.959Z,11.10
2023-05-09T22:48:39.490Z,10.91
2023-05-09T22:51:25.193Z,10.67
2023-05-09T22:54:10.866Z,10.27
2023-05-09T22:56:56.225Z,10.48
2023-05-09T22:59:41.850Z,9.12
2023-05-09T23:02:27.102Z,9.32
2023-05-09T23:05:12.543Z,9.37
2023-05-09T23:07:57.899Z,10.50
2023-05-09T23:10:44.017Z,10.29
2023-05-09T23:13:29.585Z,10.27
2023-05-09T23:16:15.224Z,10.05
2023-05-09T23:19:00.885Z,10.66
2023-05-09T23:21:46.162Z,9.01
2023-05-09T23:24:31.614Z,10.33
2023-05-09T23:27:16.844Z,10.55
2023-05-09T23:30:02.267Z,10.37
2023-05-09T23:32:47.543Z,10.81
2023-05-09T23:35:32.724Z,9.46
2023-05-09T23:38:18.145Z,10.82
2023-05-09T23:41:03.593Z,11.13
2023-05-09T23:43:49.674Z,9.91
2023-05-09T23:46:35.142Z,10.68
2023-05-09T23:49:20.617Z,9.81
2023-05-09T23:52:05.817Z,10.31
2023-05-09T23:54:50.905Z,9.59
2023-05-09T23:57:36.212Z,10.15
